sensor_id;sensor_type;location;lat;lon;timestamp;temperature;humidity
75683;HTU21D;64295;44.772;39.872;2023-04-25T00:02:43;11.14;74.96
75683;HTU21D;64295;44.772;39.872;2023-04-25T00:05:09;11.17;74.89
75683;HTU21D;64295;44.772;39.872;2023-04-25T00:07:38;11.20;74.79
75683;HTU21D;64295;44.772;39.872;2023-04-25T00:10:31;11.27;74.61
75683;HTU21D;64295;44.772;39.872;2023-04-25T00:12:57;11.31;74.54
75683;HTU21D;64295;44.772;39.872;2023-04-25T00:15:27;11.30;74.52
75683;HTU21D;64295;44.772;39.872;2023-04-25T00:18:00;11.30;74.53
75683;HTU21D;64295;44.772;39.872;2023-04-25T00:20:26;11.28;74.58
75683;HTU21D;64295;44.772;39.872;2023-04-25T00:22:52;11.27;74.60
75683;HTU21D;64295;44.772;39.872;2023-04-25T00:25:18;11.30;74.51
75683;HTU21D;64295;44.772;39.872;2023-04-25T00:27:45;11.29;74.45
75683;HTU21D;64295;44.772;39.872;2023-04-25T00:30:12;11.31;74.47
75683;HTU21D;64295;44.772;39.872;2023-04-25T00:32:38;11.34;74.38
75683;HTU21D;64295;44.772;39.872;2023-04-25T00:35:04;11.39;74.31
75683;HTU21D;64295;44.772;39.872;2023-04-25T00:37:30;11.41;74.25
75683;HTU21D;64295;44.772;39.872;2023-04-25T00:39:58;11.40;74.20
75683;HTU21D;64295;44.772;39.872;2023-04-25T00:42:25;11.38;74.28
75683;HTU21D;64295;44.772;39.872;2023-04-25T00:44:52;11.34;74.32
75683;HTU21D;64295;44.772;39.872;2023-04-25T00:47:18;11.36;74.29
75683;HTU21D;64295;44.772;39.872;2023-04-25T00:49:45;11.31;74.32
75683;HTU21D;64295;44.772;39.872;2023-04-25T00:52:11;11.29;74.35
75683;HTU21D;64295;44.772;39.872;2023-04-25T00:54:38;11.26;74.35
75683;HTU21D;64295;44.772;39.872;2023-04-25T00:57:04;11.25;74.30
75683;HTU21D;64295;44.772;39.872;2023-04-25T00:59:37;11.25;74.32
75683;HTU21D;64295;44.772;39.872;2023-04-25T01:02:09;11.26;74.24
75683;HTU21D;64295;44.772;39.872;2023-04-25T01:04:35;11.24;74.25
75683;HTU21D;64295;44.772;39.872;2023-04-25T01:07:02;11.22;74.22
75683;HTU21D;64295;44.772;39.872;2023-04-25T01:09:30;11.18;74.27
75683;HTU21D;64295;44.772;39.872;2023-04-25T01:11:58;11.18;74.22
75683;HTU21D;64295;44.772;39.872;2023-04-25T01:14:26;11.18;74.15
75683;HTU21D;64295;44.772;39.872;2023-04-25T01:16:52;11.18;74.10
75683;HTU21D;64295;44.772;39.872;2023-04-25T01:19:19;11.19;74.06
75683;HTU21D;64295;44.772;39.872;2023-04-25T01:21:46;11.20;74.00
75683;HTU21D;64295;44.772;39.872;2023-04-25T01:24:12;11.22;73.99
75683;HTU21D;64295;44.772;39.872;2023-04-25T01:26:40;11.22;73.95
75683;HTU21D;64295;44.772;39.872;2023-04-25T01:29:10;11.20;73.93
75683;HTU21D;64295;44.772;39.872;2023-04-25T01:31:36;11.19;73.90
75683;HTU21D;64295;44.772;39.872;2023-04-25T01:34:04;11.20;73.86
75683;HTU21D;64295;44.772;39.872;2023-04-25T01:36:30;11.19;73.83
75683;HTU21D;64295;44.772;39.872;2023-04-25T01:38:56;11.17;73.84
75683;HTU21D;64295;44.772;39.872;2023-04-25T01:41:22;11.17;73.86
75683;HTU21D;64295;44.772;39.872;2023-04-25T01:43:49;11.14;73.88
75683;HTU21D;64295;44.772;39.872;2023-04-25T01:46:19;11.13;73.88
75683;HTU21D;64295;44.772;39.872;2023-04-25T01:48:51;11.10;73.92
75683;HTU21D;64295;44.772;39.872;2023-04-25T01:51:23;11.04;73.88
75683;HTU21D;64295;44.772;39.872;2023-04-25T01:53:49;11.02;73.94
75683;HTU21D;64295;44.772;39.872;2023-04-25T01:56:15;10.99;73.98
75683;HTU21D;64295;44.772;39.872;2023-04-25T01:58:41;10.96;74.01
75683;HTU21D;64295;44.772;39.872;2023-04-25T02:01:36;10.95;74.00
75683;HTU21D;64295;44.772;39.872;2023-04-25T02:04:15;10.95;73.98
75683;HTU21D;64295;44.772;39.872;2023-04-25T02:06:41;10.95;73.94
75683;HTU21D;64295;44.772;39.872;2023-04-25T02:09:07;10.94;73.93
75683;HTU21D;64295;44.772;39.872;2023-04-25T02:11:39;10.96;73.92
75683;HTU21D;64295;44.772;39.872;2023-04-25T02:14:26;10.94;73.87
75683;HTU21D;64295;44.772;39.872;2023-04-25T02:17:02;10.89;73.94
75683;HTU21D;64295;44.772;39.872;2023-04-25T02:19:30;10.87;74.00
75683;HTU21D;64295;44.772;39.872;2023-04-25T02:21:56;10.84;74.02
75683;HTU21D;64295;44.772;39.872;2023-04-25T02:24:22;10.83;74.04
75683;HTU21D;64295;44.772;39.872;2023-04-25T02:26:49;10.85;74.02
75683;HTU21D;64295;44.772;39.872;2023-04-25T02:29:17;10.84;74.00
75683;HTU21D;64295;44.772;39.872;2023-04-25T02:31:43;10.83;73.99
75683;HTU21D;64295;44.772;39.872;2023-04-25T02:34:09;10.85;73.95
75683;HTU21D;64295;44.772;39.872;2023-04-25T02:36:37;10.86;73.91
75683;HTU21D;64295;44.772;39.872;2023-04-25T02:39:03;10.87;73.91
75683;HTU21D;64295;44.772;39.872;2023-04-25T02:41:37;10.87;73.83
75683;HTU21D;64295;44.772;39.872;2023-04-25T02:44:05;10.83;73.91
75683;HTU21D;64295;44.772;39.872;2023-04-25T02:46:46;10.84;73.94
75683;HTU21D;64295;44.772;39.872;2023-04-25T02:49:15;10.82;73.93
75683;HTU21D;64295;44.772;39.872;2023-04-25T02:51:41;10.84;73.91
75683;HTU21D;64295;44.772;39.872;2023-04-25T02:54:07;10.84;73.88
75683;HTU21D;64295;44.772;39.872;2023-04-25T02:56:38;10.84;73.88
75683;HTU21D;64295;44.772;39.872;2023-04-25T02:59:09;10.86;73.83
75683;HTU21D;64295;44.772;39.872;2023-04-25T03:01:35;10.90;73.77
75683;HTU21D;64295;44.772;39.872;2023-04-25T03:04:01;10.93;73.71
75683;HTU21D;64295;44.772;39.872;2023-04-25T03:06:26;10.95;73.67
75683;HTU21D;64295;44.772;39.872;2023-04-25T03:08:52;11.02;73.57
75683;HTU21D;64295;44.772;39.872;2023-04-25T03:11:20;11.07;73.44
75683;HTU21D;64295;44.772;39.872;2023-04-25T03:13:53;11.10;73.38
75683;HTU21D;64295;44.772;39.872;2023-04-25T03:16:20;11.13;73.38
75683;HTU21D;64295;44.772;39.872;2023-04-25T03:18:47;11.13;73.34
75683;HTU21D;64295;44.772;39.872;2023-04-25T03:21:15;11.15;73.32
75683;HTU21D;64295;44.772;39.872;2023-04-25T03:23:41;11.19;73.27
75683;HTU21D;64295;44.772;39.872;2023-04-25T03:26:07;11.25;73.16
75683;HTU21D;64295;44.772;39.872;2023-04-25T03:28:33;11.30;73.09
75683;HTU21D;64295;44.772;39.872;2023-04-25T03:30:59;11.38;72.97
75683;HTU21D;64295;44.772;39.872;2023-04-25T03:33:25;11.45;72.89
75683;HTU21D;64295;44.772;39.872;2023-04-25T03:35:51;11.51;72.78
75683;HTU21D;64295;44.772;39.872;2023-04-25T03:38:17;11.56;72.71
75683;HTU21D;64295;44.772;39.872;2023-04-25T03:40:53;11.63;72.63
75683;HTU21D;64295;44.772;39.872;2023-04-25T03:43:42;11.71;72.44
75683;HTU21D;64295;44.772;39.872;2023-04-25T03:46:11;11.77;72.34
75683;HTU21D;64295;44.772;39.872;2023-04-25T03:48:39;11.84;72.19
75683;HTU21D;64295;44.772;39.872;2023-04-25T03:51:07;11.92;72.09
75683;HTU21D;64295;44.772;39.872;2023-04-25T03:53:38;11.99;71.95
75683;HTU21D;64295;44.772;39.872;2023-04-25T03:56:19;12.01;71.84
75683;HTU21D;64295;44.772;39.872;2023-04-25T03:58:50;12.03;71.88
75683;HTU21D;64295;44.772;39.872;2023-04-25T04:01:18;12.13;71.68
75683;HTU21D;64295;44.772;39.872;2023-04-25T04:03:44;12.22;71.50
75683;HTU21D;64295;44.772;39.872;2023-04-25T04:06:10;12.32;71.39
75683;HTU21D;64295;44.772;39.872;2023-04-25T04:08:39;12.38;71.19
75683;HTU21D;64295;44.772;39.872;2023-04-25T04:11:05;12.44;71.15
75683;HTU21D;64295;44.772;39.872;2023-04-25T04:13:32;12.49;71.09
75683;HTU21D;64295;44.772;39.872;2023-04-25T04:15:59;12.46;71.20
75683;HTU21D;64295;44.772;39.872;2023-04-25T04:18:25;12.42;71.30
75683;HTU21D;64295;44.772;39.872;2023-04-25T04:20:52;12.36;71.48
75683;HTU21D;64295;44.772;39.872;2023-04-25T04:23:19;12.34;71.58
75683;HTU21D;64295;44.772;39.872;2023-04-25T04:25:47;12.34;71.61
75683;HTU21D;64295;44.772;39.872;2023-04-25T04:28:32;12.43;71.48
75683;HTU21D;64295;44.772;39.872;2023-04-25T04:31:21;12.51;71.37
75683;HTU21D;64295;44.772;39.872;2023-04-25T04:33:47;12.59;71.19
75683;HTU21D;64295;44.772;39.872;2023-04-25T04:36:14;12.67;71.08
75683;HTU21D;64295;44.772;39.872;2023-04-25T04:38:41;12.71;71.01
75683;HTU21D;64295;44.772;39.872;2023-04-25T04:41:13;12.76;70.94
75683;HTU21D;64295;44.772;39.872;2023-04-25T04:44:05;12.80;70.87
75683;HTU21D;64295;44.772;39.872;2023-04-25T04:46:42;12.76;71.06
75683;HTU21D;64295;44.772;39.872;2023-04-25T04:49:24;12.69;71.19
75683;HTU21D;64295;44.772;39.872;2023-04-25T04:52:17;12.62;71.35
75683;HTU21D;64295;44.772;39.872;2023-04-25T04:55:15;12.59;71.32
75683;HTU21D;64295;44.772;39.872;2023-04-25T04:58:06;12.59;71.26
75683;HTU21D;64295;44.772;39.872;2023-04-25T05:00:50;12.59;71.10
75683;HTU21D;64295;44.772;39.872;2023-04-25T05:03:51;12.64;71.08
75683;HTU21D;64295;44.772;39.872;2023-04-25T05:06:39;12.74;70.92
75683;HTU21D;64295;44.772;39.872;2023-04-25T05:09:32;12.82;70.71
75683;HTU21D;64295;44.772;39.872;2023-04-25T05:12:21;12.90;70.64
75683;HTU21D;64295;44.772;39.872;2023-04-25T05:14:57;13.10;70.38
75683;HTU21D;64295;44.772;39.872;2023-04-25T05:17:58;13.36;69.81
75683;HTU21D;64295;44.772;39.872;2023-04-25T05:20:45;13.55;69.58
75683;HTU21D;64295;44.772;39.872;2023-04-25T05:23:30;13.67;69.23
75683;HTU21D;64295;44.772;39.872;2023-04-25T05:26:24;13.71;68.97
75683;HTU21D;64295;44.772;39.872;2023-04-25T05:29:00;13.70;69.07
75683;HTU21D;64295;44.772;39.872;2023-04-25T05:31:45;13.73;69.00
75683;HTU21D;64295;44.772;39.872;2023-04-25T05:34:14;13.76;68.95
75683;HTU21D;64295;44.772;39.872;2023-04-25T05:37:01;13.85;68.87
75683;HTU21D;64295;44.772;39.872;2023-04-25T05:39:27;13.90;68.75
75683;HTU21D;64295;44.772;39.872;2023-04-25T05:42:12;13.89;68.55
75683;HTU21D;64295;44.772;39.872;2023-04-25T05:45:01;13.96;67.90
75683;HTU21D;64295;44.772;39.872;2023-04-25T05:47:49;14.04;67.74
75683;HTU21D;64295;44.772;39.872;2023-04-25T05:50:23;14.00;67.87
75683;HTU21D;64295;44.772;39.872;2023-04-25T05:53:01;13.99;67.61
75683;HTU21D;64295;44.772;39.872;2023-04-25T05:55:34;13.93;67.78
75683;HTU21D;64295;44.772;39.872;2023-04-25T05:58:12;13.91;67.78
75683;HTU21D;64295;44.772;39.872;2023-04-25T06:00:38;13.97;67.54
75683;HTU21D;64295;44.772;39.872;2023-04-25T06:03:04;14.09;67.20
75683;HTU21D;64295;44.772;39.872;2023-04-25T06:05:30;14.21;66.02
75683;HTU21D;64295;44.772;39.872;2023-04-25T06:07:56;14.27;65.76
75683;HTU21D;64295;44.772;39.872;2023-04-25T06:10:22;14.48;65.28
75683;HTU21D;64295;44.772;39.872;2023-04-25T06:12:48;14.63;65.42
75683;HTU21D;64295;44.772;39.872;2023-04-25T06:15:17;14.73;64.88
75683;HTU21D;64295;44.772;39.872;2023-04-25T06:17:43;14.65;64.73
75683;HTU21D;64295;44.772;39.872;2023-04-25T06:20:13;14.60;64.44
75683;HTU21D;64295;44.772;39.872;2023-04-25T06:22:40;14.66;64.72
75683;HTU21D;64295;44.772;39.872;2023-04-25T06:25:07;14.77;64.60
75683;HTU21D;64295;44.772;39.872;2023-04-25T06:27:34;14.92;64.11
75683;HTU21D;64295;44.772;39.872;2023-04-25T06:30:01;14.86;64.32
75683;HTU21D;64295;44.772;39.872;2023-04-25T06:32:29;14.75;64.51
75683;HTU21D;64295;44.772;39.872;2023-04-25T06:34:58;14.75;64.71
75683;HTU21D;64295;44.772;39.872;2023-04-25T06:37:24;14.73;64.24
75683;HTU21D;64295;44.772;39.872;2023-04-25T06:39:51;14.60;63.50
75683;HTU21D;64295;44.772;39.872;2023-04-25T06:42:17;14.52;63.58
75683;HTU21D;64295;44.772;39.872;2023-04-25T06:44:56;14.49;63.11
75683;HTU21D;64295;44.772;39.872;2023-04-25T06:47:22;14.56;63.29
75683;HTU21D;64295;44.772;39.872;2023-04-25T06:49:50;14.72;62.77
75683;HTU21D;64295;44.772;39.872;2023-04-25T06:52:16;14.75;62.74
75683;HTU21D;64295;44.772;39.872;2023-04-25T06:54:44;14.78;62.50
75683;HTU21D;64295;44.772;39.872;2023-04-25T06:57:34;14.81;62.78
75683;HTU21D;64295;44.772;39.872;2023-04-25T07:00:16;14.88;62.42
75683;HTU21D;64295;44.772;39.872;2023-04-25T07:02:43;14.92;62.28
75683;HTU21D;64295;44.772;39.872;2023-04-25T07:05:09;14.89;62.02
75683;HTU21D;64295;44.772;39.872;2023-04-25T07:07:35;14.84;62.47
75683;HTU21D;64295;44.772;39.872;2023-04-25T07:10:01;14.85;62.63
75683;HTU21D;64295;44.772;39.872;2023-04-25T07:12:27;14.83;62.83
75683;HTU21D;64295;44.772;39.872;2023-04-25T07:14:53;14.85;63.03
75683;HTU21D;64295;44.772;39.872;2023-04-25T07:17:19;14.93;62.83
75683;HTU21D;64295;44.772;39.872;2023-04-25T07:19:45;14.85;62.23
75683;HTU21D;64295;44.772;39.872;2023-04-25T07:22:11;14.73;62.25
75683;HTU21D;64295;44.772;39.872;2023-04-25T07:24:40;14.57;61.90
75683;HTU21D;64295;44.772;39.872;2023-04-25T07:27:08;14.47;62.20
75683;HTU21D;64295;44.772;39.872;2023-04-25T07:29:54;14.45;62.30
75683;HTU21D;64295;44.772;39.872;2023-04-25T07:32:22;14.49;62.12
75683;HTU21D;64295;44.772;39.872;2023-04-25T07:34:48;14.58;62.16
75683;HTU21D;64295;44.772;39.872;2023-04-25T07:37:14;14.66;62.07
75683;HTU21D;64295;44.772;39.872;2023-04-25T07:39:54;14.70;62.00
75683;HTU21D;64295;44.772;39.872;2023-04-25T07:42:20;14.71;61.86
75683;HTU21D;64295;44.772;39.872;2023-04-25T07:44:47;14.78;61.65
75683;HTU21D;64295;44.772;39.872;2023-04-25T07:47:14;14.79;61.75
75683;HTU21D;64295;44.772;39.872;2023-04-25T07:49:41;14.84;61.21
75683;HTU21D;64295;44.772;39.872;2023-04-25T07:52:07;14.81;61.03
75683;HTU21D;64295;44.772;39.872;2023-04-25T07:54:34;14.88;60.95
75683;HTU21D;64295;44.772;39.872;2023-04-25T07:57:08;14.95;60.17
75683;HTU21D;64295;44.772;39.872;2023-04-25T07:59:36;14.89;59.91
75683;HTU21D;64295;44.772;39.872;2023-04-25T08:02:03;14.79;59.86
75683;HTU21D;64295;44.772;39.872;2023-04-25T08:04:29;14.65;59.87
75683;HTU21D;64295;44.772;39.872;2023-04-25T08:07:00;14.53;60.08
75683;HTU21D;64295;44.772;39.872;2023-04-25T08:09:31;14.44;60.15
75683;HTU21D;64295;44.772;39.872;2023-04-25T08:12:02;14.43;60.43
75683;HTU21D;64295;44.772;39.872;2023-04-25T08:14:31;14.44;60.57
75683;HTU21D;64295;44.772;39.872;2023-04-25T08:17:05;14.51;60.64
75683;HTU21D;64295;44.772;39.872;2023-04-25T08:19:33;14.56;60.59
75683;HTU21D;64295;44.772;39.872;2023-04-25T08:22:00;14.67;60.43
75683;HTU21D;64295;44.772;39.872;2023-04-25T08:24:35;14.65;60.45
75683;HTU21D;64295;44.772;39.872;2023-04-25T08:27:03;14.69;60.51
75683;HTU21D;64295;44.772;39.872;2023-04-25T08:29:30;14.71;60.11
75683;HTU21D;64295;44.772;39.872;2023-04-25T08:31:57;14.79;59.86
75683;HTU21D;64295;44.772;39.872;2023-04-25T08:34:23;14.80;59.61
75683;HTU21D;64295;44.772;39.872;2023-04-25T08:36:52;14.70;59.74
75683;HTU21D;64295;44.772;39.872;2023-04-25T08:39:50;14.68;59.96
75683;HTU21D;64295;44.772;39.872;2023-04-25T08:42:42;14.75;59.94
75683;HTU21D;64295;44.772;39.872;2023-04-25T08:45:09;14.91;59.69
75683;HTU21D;64295;44.772;39.872;2023-04-25T08:47:38;15.06;59.44
75683;HTU21D;64295;44.772;39.872;2023-04-25T08:50:07;15.19;59.31
75683;HTU21D;64295;44.772;39.872;2023-04-25T08:52:45;15.31;58.86
75683;HTU21D;64295;44.772;39.872;2023-04-25T08:55:13;15.55;58.83
75683;HTU21D;64295;44.772;39.872;2023-04-25T08:57:43;15.75;57.80
75683;HTU21D;64295;44.772;39.872;2023-04-25T09:00:11;15.70;57.65
75683;HTU21D;64295;44.772;39.872;2023-04-25T09:02:42;15.73;57.82
75683;HTU21D;64295;44.772;39.872;2023-04-25T09:05:09;15.78;57.74
75683;HTU21D;64295;44.772;39.872;2023-04-25T09:07:40;15.88;57.50
75683;HTU21D;64295;44.772;39.872;2023-04-25T09:10:06;16.00;57.46
75683;HTU21D;64295;44.772;39.872;2023-04-25T09:12:38;16.10;57.42
75683;HTU21D;64295;44.772;39.872;2023-04-25T09:15:11;16.19;56.70
75683;HTU21D;64295;44.772;39.872;2023-04-25T09:18:04;16.20;56.62
75683;HTU21D;64295;44.772;39.872;2023-04-25T09:20:41;16.28;56.62
75683;HTU21D;64295;44.772;39.872;2023-04-25T09:23:08;16.47;56.36
75683;HTU21D;64295;44.772;39.872;2023-04-25T09:25:38;16.65;56.54
75683;HTU21D;64295;44.772;39.872;2023-04-25T09:28:07;16.90;56.32
75683;HTU21D;64295;44.772;39.872;2023-04-25T09:30:35;17.01;55.75
75683;HTU21D;64295;44.772;39.872;2023-04-25T09:33:11;17.07;55.64
75683;HTU21D;64295;44.772;39.872;2023-04-25T09:35:44;17.08;55.07
75683;HTU21D;64295;44.772;39.872;2023-04-25T09:38:30;16.96;54.94
75683;HTU21D;64295;44.772;39.872;2023-04-25T09:40:59;16.94;54.91
75683;HTU21D;64295;44.772;39.872;2023-04-25T09:43:39;16.94;54.59
75683;HTU21D;64295;44.772;39.872;2023-04-25T09:46:11;16.92;54.79
75683;HTU21D;64295;44.772;39.872;2023-04-25T09:48:50;17.02;54.65
75683;HTU21D;64295;44.772;39.872;2023-04-25T09:51:25;17.09;54.84
75683;HTU21D;64295;44.772;39.872;2023-04-25T09:53:53;17.20;54.50
75683;HTU21D;64295;44.772;39.872;2023-04-25T09:56:36;17.17;54.01
75683;HTU21D;64295;44.772;39.872;2023-04-25T09:59:07;17.17;53.98
75683;HTU21D;64295;44.772;39.872;2023-04-25T10:01:36;17.32;53.12
75683;HTU21D;64295;44.772;39.872;2023-04-25T10:04:12;17.34;53.50
75683;HTU21D;64295;44.772;39.872;2023-04-25T10:07:11;17.30;53.06
75683;HTU21D;64295;44.772;39.872;2023-04-25T10:09:39;17.28;52.94
75683;HTU21D;64295;44.772;39.872;2023-04-25T10:12:06;17.41;52.99
75683;HTU21D;64295;44.772;39.872;2023-04-25T10:14:34;17.44;52.53
75683;HTU21D;64295;44.772;39.872;2023-04-25T10:17:01;17.40;52.81
75683;HTU21D;64295;44.772;39.872;2023-04-25T10:19:27;17.41;52.83
75683;HTU21D;64295;44.772;39.872;2023-04-25T10:22:07;17.53;52.58
75683;HTU21D;64295;44.772;39.872;2023-04-25T10:24:39;17.64;52.68
75683;HTU21D;64295;44.772;39.872;2023-04-25T10:27:06;17.73;52.22
75683;HTU21D;64295;44.772;39.872;2023-04-25T10:29:32;17.80;52.30
75683;HTU21D;64295;44.772;39.872;2023-04-25T10:31:59;17.92;52.14
75683;HTU21D;64295;44.772;39.872;2023-04-25T10:34:43;18.07;51.71
75683;HTU21D;64295;44.772;39.872;2023-04-25T10:37:13;18.07;51.04
75683;HTU21D;64295;44.772;39.872;2023-04-25T10:39:40;17.99;51.16
75683;HTU21D;64295;44.772;39.872;2023-04-25T10:42:11;18.07;50.82
75683;HTU21D;64295;44.772;39.872;2023-04-25T10:44:38;18.09;50.73
75683;HTU21D;64295;44.772;39.872;2023-04-25T10:47:09;18.09;50.37
75683;HTU21D;64295;44.772;39.872;2023-04-25T10:49:38;18.04;50.27
75683;HTU21D;64295;44.772;39.872;2023-04-25T10:52:25;18.03;50.16
75683;HTU21D;64295;44.772;39.872;2023-04-25T10:54:53;18.07;49.77
75683;HTU21D;64295;44.772;39.872;2023-04-25T10:57:39;18.14;49.10
75683;HTU21D;64295;44.772;39.872;2023-04-25T11:00:18;18.18;49.82
75683;HTU21D;64295;44.772;39.872;2023-04-25T11:02:53;18.24;49.66
75683;HTU21D;64295;44.772;39.872;2023-04-25T11:05:34;18.28;49.76
75683;HTU21D;64295;44.772;39.872;2023-04-25T11:08:12;18.29;49.21
75683;HTU21D;64295;44.772;39.872;2023-04-25T11:10:40;18.26;48.86
75683;HTU21D;64295;44.772;39.872;2023-04-25T11:13:06;18.24;49.25
75683;HTU21D;64295;44.772;39.872;2023-04-25T11:15:32;18.33;49.01
75683;HTU21D;64295;44.772;39.872;2023-04-25T11:17:58;18.37;48.84
75683;HTU21D;64295;44.772;39.872;2023-04-25T11:20:25;18.43;48.80
75683;HTU21D;64295;44.772;39.872;2023-04-25T11:22:51;18.41;48.31
75683;HTU21D;64295;44.772;39.872;2023-04-25T11:25:17;18.34;48.16
75683;HTU21D;64295;44.772;39.872;2023-04-25T11:27:54;18.30;48.22
75683;HTU21D;64295;44.772;39.872;2023-04-25T11:30:22;18.35;48.42
75683;HTU21D;64295;44.772;39.872;2023-04-25T11:32:48;18.34;48.31
75683;HTU21D;64295;44.772;39.872;2023-04-25T11:35:14;18.30;47.66
75683;HTU21D;64295;44.772;39.872;2023-04-25T11:37:41;18.30;48.44
75683;HTU21D;64295;44.772;39.872;2023-04-25T11:40:08;18.47;48.34
75683;HTU21D;64295;44.772;39.872;2023-04-25T11:42:47;18.46;47.70
75683;HTU21D;64295;44.772;39.872;2023-04-25T11:45:14;18.49;47.84
75683;HTU21D;64295;44.772;39.872;2023-04-25T11:47:41;18.57;48.05
75683;HTU21D;64295;44.772;39.872;2023-04-25T11:50:08;18.70;48.05
75683;HTU21D;64295;44.772;39.872;2023-04-25T11:52:42;18.76;47.96
75683;HTU21D;64295;44.772;39.872;2023-04-25T11:55:10;18.85;48.05
75683;HTU21D;64295;44.772;39.872;2023-04-25T11:57:38;18.96;47.73
75683;HTU21D;64295;44.772;39.872;2023-04-25T12:00:12;18.87;47.58
75683;HTU21D;64295;44.772;39.872;2023-04-25T12:02:47;18.93;47.63
75683;HTU21D;64295;44.772;39.872;2023-04-25T12:05:15;18.91;47.23
75683;HTU21D;64295;44.772;39.872;2023-04-25T12:07:42;18.88;47.72
75683;HTU21D;64295;44.772;39.872;2023-04-25T12:10:10;19.02;47.71
75683;HTU21D;64295;44.772;39.872;2023-04-25T12:12:38;19.11;47.34
75683;HTU21D;64295;44.772;39.872;2023-04-25T12:15:18;19.20;47.41
75683;HTU21D;64295;44.772;39.872;2023-04-25T12:17:51;19.18;46.80
75683;HTU21D;64295;44.772;39.872;2023-04-25T12:20:23;19.12;46.21
75683;HTU21D;64295;44.772;39.872;2023-04-25T12:22:50;19.06;46.49
75683;HTU21D;64295;44.772;39.872;2023-04-25T12:25:35;19.10;46.47
75683;HTU21D;64295;44.772;39.872;2023-04-25T12:28:15;19.11;46.29
75683;HTU21D;64295;44.772;39.872;2023-04-25T12:33:30;19.18;46.19
75683;HTU21D;64295;44.772;39.872;2023-04-25T12:35:57;19.18;45.41
75683;HTU21D;64295;44.772;39.872;2023-04-25T12:38:28;19.16;45.82
75683;HTU21D;64295;44.772;39.872;2023-04-25T12:40:57;19.20;45.53
75683;HTU21D;64295;44.772;39.872;2023-04-25T12:43:24;19.17;45.73
75683;HTU21D;64295;44.772;39.872;2023-04-25T12:45:51;19.15;45.35
75683;HTU21D;64295;44.772;39.872;2023-04-25T12:48:17;19.08;45.07
75683;HTU21D;64295;44.772;39.872;2023-04-25T12:50:44;19.07;45.38
75683;HTU21D;64295;44.772;39.872;2023-04-25T12:53:10;19.09;44.70
75683;HTU21D;64295;44.772;39.872;2023-04-25T12:55:37;19.03;44.99
75683;HTU21D;64295;44.772;39.872;2023-04-25T12:58:03;19.03;44.74
75683;HTU21D;64295;44.772;39.872;2023-04-25T13:00:30;19.06;44.99
75683;HTU21D;64295;44.772;39.872;2023-04-25T13:02:56;19.07;44.61
75683;HTU21D;64295;44.772;39.872;2023-04-25T13:05:22;19.10;44.87
75683;HTU21D;64295;44.772;39.872;2023-04-25T13:07:48;19.22;44.94
75683;HTU21D;64295;44.772;39.872;2023-04-25T13:10:14;19.29;44.55
75683;HTU21D;64295;44.772;39.872;2023-04-25T13:12:41;19.29;44.38
75683;HTU21D;64295;44.772;39.872;2023-04-25T13:15:07;19.37;44.80
75683;HTU21D;64295;44.772;39.872;2023-04-25T13:17:34;19.51;44.57
75683;HTU21D;64295;44.772;39.872;2023-04-25T13:20:01;19.48;44.51
75683;HTU21D;64295;44.772;39.872;2023-04-25T13:22:27;19.48;44.67
75683;HTU21D;64295;44.772;39.872;2023-04-25T13:24:52;19.45;44.55
75683;HTU21D;64295;44.772;39.872;2023-04-25T13:27:18;19.44;44.45
75683;HTU21D;64295;44.772;39.872;2023-04-25T13:29:46;19.43;44.45
75683;HTU21D;64295;44.772;39.872;2023-04-25T13:32:16;19.48;44.40
75683;HTU21D;64295;44.772;39.872;2023-04-25T13:34:43;19.50;44.30
75683;HTU21D;64295;44.772;39.872;2023-04-25T13:37:10;19.56;44.20
75683;HTU21D;64295;44.772;39.872;2023-04-25T13:39:39;19.57;44.37
75683;HTU21D;64295;44.772;39.872;2023-04-25T13:42:05;19.60;44.03
75683;HTU21D;64295;44.772;39.872;2023-04-25T13:44:33;19.59;43.84
75683;HTU21D;64295;44.772;39.872;2023-04-25T13:46:59;19.57;44.07
75683;HTU21D;64295;44.772;39.872;2023-04-25T13:49:26;19.59;44.32
75683;HTU21D;64295;44.772;39.872;2023-04-25T13:51:52;19.67;43.76
75683;HTU21D;64295;44.772;39.872;2023-04-25T13:54:18;19.65;43.67
75683;HTU21D;64295;44.772;39.872;2023-04-25T13:56:47;19.58;43.91
75683;HTU21D;64295;44.772;39.872;2023-04-25T13:59:15;19.51;43.58
75683;HTU21D;64295;44.772;39.872;2023-04-25T14:01:42;19.40;43.48
75683;HTU21D;64295;44.772;39.872;2023-04-25T14:04:08;19.33;43.33
75683;HTU21D;64295;44.772;39.872;2023-04-25T14:06:38;19.29;43.45
75683;HTU21D;64295;44.772;39.872;2023-04-25T14:09:04;19.30;43.71
75683;HTU21D;64295;44.772;39.872;2023-04-25T14:11:30;19.30;43.64
75683;HTU21D;64295;44.772;39.872;2023-04-25T14:14:02;19.36;44.03
75683;HTU21D;64295;44.772;39.872;2023-04-25T14:16:31;19.50;43.84
75683;HTU21D;64295;44.772;39.872;2023-04-25T14:19:01;19.50;44.11
75683;HTU21D;64295;44.772;39.872;2023-04-25T14:21:30;19.46;44.06
75683;HTU21D;64295;44.772;39.872;2023-04-25T14:24:00;19.44;44.13
75683;HTU21D;64295;44.772;39.872;2023-04-25T14:26:26;19.40;44.06
75683;HTU21D;64295;44.772;39.872;2023-04-25T14:28:53;19.37;44.19
75683;HTU21D;64295;44.772;39.872;2023-04-25T14:31:19;19.31;44.26
75683;HTU21D;64295;44.772;39.872;2023-04-25T14:33:45;19.39;44.41
75683;HTU21D;64295;44.772;39.872;2023-04-25T14:36:12;19.38;44.16
75683;HTU21D;64295;44.772;39.872;2023-04-25T14:38:40;19.22;43.92
75683;HTU21D;64295;44.772;39.872;2023-04-25T14:41:07;19.10;44.11
75683;HTU21D;64295;44.772;39.872;2023-04-25T14:43:33;19.06;44.38
75683;HTU21D;64295;44.772;39.872;2023-04-25T14:46:02;19.06;44.38
75683;HTU21D;64295;44.772;39.872;2023-04-25T14:48:34;19.09;44.58
75683;HTU21D;64295;44.772;39.872;2023-04-25T14:51:00;19.05;44.46
75683;HTU21D;64295;44.772;39.872;2023-04-25T14:53:27;18.96;44.66
75683;HTU21D;64295;44.772;39.872;2023-04-25T14:55:54;18.88;44.64
75683;HTU21D;64295;44.772;39.872;2023-04-25T14:58:20;18.91;44.88
75683;HTU21D;64295;44.772;39.872;2023-04-25T15:00:46;18.91;44.90
75683;HTU21D;64295;44.772;39.872;2023-04-25T15:03:13;18.92;44.98
75683;HTU21D;64295;44.772;39.872;2023-04-25T15:05:44;18.88;45.11
75683;HTU21D;64295;44.772;39.872;2023-04-25T15:08:11;18.86;45.35
75683;HTU21D;64295;44.772;39.872;2023-04-25T15:10:45;18.83;45.54
75683;HTU21D;64295;44.772;39.872;2023-04-25T15:13:11;18.74;45.71
75683;HTU21D;64295;44.772;39.872;2023-04-25T15:15:40;18.65;45.99
75683;HTU21D;64295;44.772;39.872;2023-04-25T15:18:07;18.53;46.10
75683;HTU21D;64295;44.772;39.872;2023-04-25T15:20:40;18.42;46.42
75683;HTU21D;64295;44.772;39.872;2023-04-25T15:23:06;18.39;46.63
75683;HTU21D;64295;44.772;39.872;2023-04-25T15:25:32;18.30;46.64
75683;HTU21D;64295;44.772;39.872;2023-04-25T15:27:58;18.19;46.94